Hauptseite
METAR-TAF:

METAR-TAF

Flughäfen :

Ouargla, Algerien

Breite: 31-55N, Länge: 005-24E, Höhe: 141 m

Beobachtung

Neuester Wetterbericht von vor 19 Minuten, um 13:00 UTC
Wind 6 kt aus Südost
Temperatur 36°C
Luftfeuchtigkeit 22%
Luftdruck 1011 hPa
Sichtweite 10 km oder mehr
keine Wolken unter 1500 m und keine Kumulonimbus oder Gewitterwolken

METAR: DAUU 311300Z 13006KT CAVOK 36/11 Q1011

Zeit: 14:19 (13:19 UTC)

Prognose

Neuester Wetterbericht von vor 2 Stunden und 19 Minuten, um 11:00 UTC
Gültige Prognose vom 31 um 12 UTC bis 31 um 21 UTC
Wind 10 kt aus Nordost
Sichtweite: 8000 m
Wahrscheinlichkeit 30%
vom 31 um 14 UTC bis 31 um 18 UTC
Wind 15 kt aus Nordost, Böen bis zu 25 kt
Sichtweite: 4000 m
Sandfegen

TAF: DAUU 311100Z 3112/3121 04010KT 8000 NSC PROB30 3114/3118 04015G25KT 4000 DRSA

Wetterbeobachtungen und Prognosen von mehr als 4000 Flughäfen (METAR und TAF Bericht).

Die verfügbaren Stationen werden durch gelbe und rote Markierungen auf der Karte dargestellt.

Führen Sie die Maus auf sie, um den Namen der Station zu sehen.

Darauf klicken, um die Beobachtung von Wetterbeobachtungen und Prognosen zu sehen.

Um die Karte zu ändern : klicken Sie auf den grünen Tasten mit einem schwarzen Kreuz Zum Vergrößern, auf den grünen Button mit einem Gedankenstrich zu verkleinern, oder auf die grünen Pfeile für benachbarte Karten.


METAR-TAF: